createdAt,value
2023-02-21T00:00:30.350Z,54.59
2023-02-21T00:01:30.330Z,57.93
2023-02-21T00:02:30.348Z,54.01
2023-02-21T00:03:31.238Z,64.55
2023-02-21T00:04:30.341Z,62.22
2023-02-21T00:05:30.375Z,53.09
2023-02-21T00:06:30.350Z,52.68
2023-02-21T00:07:30.313Z,57.23
2023-02-21T00:08:30.334Z,57.34
2023-02-21T00:09:30.291Z,59.96
2023-02-21T00:10:30.290Z,52.19
2023-02-21T00:11:30.294Z,51.90
2023-02-21T00:12:30.275Z,52.04
2023-02-21T00:13:30.266Z,59.27
2023-02-21T00:14:31.236Z,59.10
2023-02-21T00:15:30.266Z,54.55
2023-02-21T00:16:30.272Z,57.68
2023-02-21T00:17:30.255Z,58.56
2023-02-21T00:18:30.238Z,54.04
2023-02-21T00:19:30.292Z,53.55
2023-02-21T00:20:30.288Z,59.40
2023-02-21T00:21:30.258Z,62.75
2023-02-21T00:22:30.224Z,63.61
2023-02-21T00:23:30.798Z,51.95
2023-02-21T00:24:30.218Z,52.05
2023-02-21T00:25:30.235Z,60.26
2023-02-21T00:26:30.247Z,55.23
2023-02-21T00:27:30.218Z,58.88
2023-02-21T00:28:30.201Z,52.08
2023-02-21T00:29:30.189Z,57.11
2023-02-21T00:30:30.353Z,52.55
2023-02-21T00:31:30.221Z,52.42
2023-02-21T00:32:30.252Z,54.32
2023-02-21T00:33:30.829Z,59.06
2023-02-21T00:34:30.273Z,54.69
2023-02-21T00:35:30.188Z,60.05
2023-02-21T00:36:30.147Z,54.76
2023-02-21T00:37:30.152Z,54.50
2023-02-21T00:38:30.143Z,55.03
2023-02-21T00:39:30.098Z,53.45
2023-02-21T00:40:30.136Z,53.09
2023-02-21T00:41:30.117Z,53.13
2023-02-21T00:42:30.129Z,52.72
2023-02-21T00:43:30.087Z,52.63
2023-02-21T00:44:30.093Z,52.16
2023-02-21T00:45:30.118Z,61.46
2023-02-21T00:46:30.097Z,54.64
2023-02-21T00:47:30.082Z,52.94
2023-02-21T00:48:30.069Z,53.45
2023-02-21T00:49:30.054Z,52.50
2023-02-21T00:50:30.116Z,52.02
2023-02-21T00:51:30.060Z,52.37
2023-02-21T00:52:30.031Z,58.88
2023-02-21T00:53:30.037Z,59.44
2023-02-21T00:54:30.051Z,55.45
2023-02-21T00:55:30.024Z,54.70
2023-02-21T00:56:30.075Z,55.08
2023-02-21T00:57:30.015Z,57.71
2023-02-21T00:58:30.055Z,54.76
2023-02-21T00:59:29.990Z,54.42
2023-02-21T01:00:30.004Z,53.46
2023-02-21T01:01:30.024Z,53.30
2023-02-21T01:02:30.732Z,53.53
2023-02-21T01:03:30.000Z,55.19
2023-02-21T01:04:29.987Z,61.11
2023-02-21T01:05:29.966Z,52.36
2023-02-21T01:06:29.994Z,53.22
2023-02-21T01:07:29.935Z,52.77
2023-02-21T01:08:31.742Z,58.49
2023-02-21T01:09:29.952Z,59.79
2023-02-21T01:10:30.936Z,52.20
2023-02-21T01:11:29.927Z,58.96
2023-02-21T01:12:29.920Z,58.30
2023-02-21T01:13:29.940Z,57.32
2023-02-21T01:14:29.905Z,53.42
2023-02-21T01:15:29.923Z,54.95
2023-02-21T01:16:29.889Z,54.67
2023-02-21T01:17:29.887Z,55.25
2023-02-21T01:18:29.936Z,54.97
2023-02-21T01:19:30.872Z,60.28
2023-02-21T01:20:29.917Z,58.16
2023-02-21T01:21:29.874Z,54.36
2023-02-21T01:22:29.892Z,53.96
2023-02-21T01:23:29.929Z,53.38
2023-02-21T01:24:29.840Z,52.85
2023-02-21T01:25:29.889Z,52.68
2023-02-21T01:26:29.842Z,54.46
2023-02-21T01:27:30.749Z,59.29
2023-02-21T01:28:29.817Z,52.33
2023-02-21T01:29:29.832Z,54.88
2023-02-21T01:30:30.733Z,54.05
2023-02-21T01:31:29.908Z,52.65
2023-02-21T01:32:29.890Z,52.33
2023-02-21T01:33:29.797Z,61.19
2023-02-21T01:34:29.770Z,56.32
2023-02-21T01:35:29.793Z,53.95
2023-02-21T01:36:29.791Z,62.20
2023-02-21T01:37:29.781Z,52.96
2023-02-21T01:38:29.799Z,59.44
2023-02-21T01:39:29.784Z,54.50
2023-02-21T01:40:29.781Z,54.46
2023-02-21T01:41:29.802Z,54.74
2023-02-21T01:42:29.729Z,54.64
2023-02-21T01:43:29.764Z,58.19
2023-02-21T01:44:29.759Z,53.12
2023-02-21T01:45:29.727Z,52.59
2023-02-21T01:46:29.815Z,57.34
2023-02-21T01:47:29.740Z,62.92
2023-02-21T01:48:29.727Z,52.59
2023-02-21T01:49:29.690Z,58.10
2023-02-21T01:50:29.694Z,52.41
2023-02-21T01:51:29.686Z,55.33
2023-02-21T01:52:29.673Z,52.49
2023-02-21T01:53:29.704Z,52.33
2023-02-21T01:54:29.656Z,53.77
2023-02-21T01:55:29.657Z,56.45
2023-02-21T01:56:29.770Z,52.60
2023-02-21T01:57:29.643Z,52.36
2023-02-21T01:58:29.673Z,51.80
2023-02-21T01:59:29.620Z,52.89
2023-02-21T02:00:29.642Z,54.91
2023-02-21T02:01:29.655Z,54.70
2023-02-21T02:02:29.664Z,54.85
2023-02-21T02:03:29.625Z,54.79
2023-02-21T02:04:29.660Z,54.61
2023-02-21T02:05:29.587Z,54.47
2023-02-21T02:06:29.637Z,54.01
2023-02-21T02:07:29.664Z,59.95
2023-02-21T02:08:29.577Z,53.08
2023-02-21T02:09:29.589Z,52.81
2023-02-21T02:10:29.579Z,52.85
2023-02-21T02:11:29.560Z,53.52
2023-02-21T02:12:29.581Z,53.66
2023-02-21T02:13:29.566Z,52.52
2023-02-21T02:14:29.539Z,52.60
2023-02-21T02:15:29.531Z,57.12
2023-02-21T02:16:29.527Z,52.47
2023-02-21T02:17:29.536Z,52.55
2023-02-21T02:18:29.545Z,52.31
2023-02-21T02:19:29.532Z,54.09
2023-02-21T02:20:29.555Z,58.49
2023-02-21T02:21:29.495Z,55.50
2023-02-21T02:22:29.487Z,67.05
2023-02-21T02:23:29.496Z,54.53
2023-02-21T02:24:29.460Z,54.06
2023-02-21T02:25:29.487Z,53.54
2023-02-21T02:26:29.522Z,53.91
2023-02-21T02:27:29.460Z,61.11
2023-02-21T02:28:29.460Z,53.30
2023-02-21T02:29:29.432Z,62.06
2023-02-21T02:30:29.500Z,55.50
2023-02-21T02:31:29.538Z,52.31
2023-02-21T02:32:29.407Z,52.67
2023-02-21T02:33:29.462Z,60.89
2023-02-21T02:34:29.416Z,54.58
2023-02-21T02:35:29.402Z,65.52
2023-02-21T02:36:29.427Z,60.27
2023-02-21T02:37:29.391Z,54.99
2023-02-21T02:38:29.406Z,52.20
2023-02-21T02:39:29.397Z,54.54
2023-02-21T02:40:29.427Z,54.48
2023-02-21T02:41:29.363Z,54.43
2023-02-21T02:42:29.395Z,54.13
2023-02-21T02:43:29.380Z,54.09
2023-02-21T02:44:29.373Z,58.87
2023-02-21T02:45:29.378Z,54.22
2023-02-21T02:46:29.460Z,53.69
2023-02-21T02:47:29.366Z,53.19
2023-02-21T02:48:29.316Z,54.82
2023-02-21T02:49:29.322Z,55.72
2023-02-21T02:50:29.291Z,52.61
2023-02-21T02:51:29.320Z,54.29
2023-02-21T02:52:29.317Z,52.51
2023-02-21T02:53:29.283Z,58.85
2023-02-21T02:54:29.285Z,52.26
2023-02-21T02:55:29.268Z,57.81
2023-02-21T02:56:29.277Z,52.65
2023-02-21T02:57:29.260Z,51.93
2023-02-21T02:58:29.272Z,57.04
2023-02-21T02:59:29.321Z,54.93
2023-02-21T03:00:29.238Z,55.55
2023-02-21T03:01:29.287Z,56.70
2023-02-21T03:02:29.244Z,54.67
2023-02-21T03:03:29.274Z,59.76
2023-02-21T03:04:29.248Z,53.44
2023-02-21T03:05:29.237Z,61.72
2023-02-21T03:06:30.239Z,54.42
2023-02-21T03:07:29.224Z,52.93
2023-02-21T03:08:29.210Z,58.13
2023-02-21T03:09:29.193Z,52.84
2023-02-21T03:10:29.211Z,58.78
2023-02-21T03:11:29.166Z,57.99
2023-02-21T03:12:29.194Z,56.84
2023-02-21T03:13:29.159Z,54.22
2023-02-21T03:14:29.189Z,57.04
2023-02-21T03:15:29.208Z,60.46
2023-02-21T03:16:29.136Z,59.09
2023-02-21T03:17:29.147Z,54.82
2023-02-21T03:18:29.127Z,54.90
2023-02-21T03:19:29.123Z,55.07
2023-02-21T03:20:29.175Z,59.43
2023-02-21T03:21:29.129Z,58.08
2023-02-21T03:22:29.115Z,63.50
2023-02-21T03:23:29.115Z,55.58
2023-02-21T03:24:29.096Z,59.87
2023-02-21T03:25:29.160Z,52.99
2023-02-21T03:26:29.086Z,52.90
2023-02-21T03:27:29.092Z,55.49
2023-02-21T03:28:29.095Z,61.57
2023-02-21T03:29:29.063Z,54.39
2023-02-21T03:30:29.105Z,56.86
2023-02-21T03:31:29.220Z,61.08
2023-02-21T03:32:29.087Z,61.69
2023-02-21T03:33:29.079Z,56.95
2023-02-21T03:34:30.079Z,57.66
2023-02-21T03:35:29.040Z,59.94
2023-02-21T03:36:29.061Z,61.78
2023-02-21T03:37:29.048Z,52.78
2023-02-21T03:38:29.036Z,52.70
2023-02-21T03:39:29.030Z,52.61
2023-02-21T03:40:29.019Z,61.56
2023-02-21T03:41:29.051Z,58.66
2023-02-21T03:42:29.036Z,55.66
2023-02-21T03:43:29.025Z,52.34
2023-02-21T03:44:28.976Z,51.97
2023-02-21T03:45:29.031Z,62.36
2023-02-21T03:46:29.006Z,61.10
2023-02-21T03:47:28.968Z,65.04
2023-02-21T03:48:32.346Z,59.97
2023-02-21T03:49:30.003Z,65.20
2023-02-21T03:50:28.979Z,64.82
2023-02-21T03:51:28.975Z,57.75
2023-02-21T03:52:28.955Z,58.78
2023-02-21T03:53:28.945Z,52.91
2023-02-21T03:54:28.988Z,62.55
2023-02-21T03:55:28.953Z,62.95
2023-02-21T03:56:41.172Z,59.09
2023-02-21T03:57:30.945Z,58.69
2023-02-21T03:58:28.928Z,61.92
2023-02-21T03:59:29.787Z,60.61
2023-02-21T04:00:28.913Z,54.86
2023-02-21T04:01:28.883Z,67.18
2023-02-21T04:02:28.931Z,66.26
2023-02-21T04:03:28.905Z,67.61
2023-02-21T04:04:28.920Z,67.33
2023-02-21T04:05:28.895Z,62.79
2023-02-21T04:06:28.875Z,63.34
2023-02-21T04:07:28.882Z,60.43
2023-02-21T04:08:29.729Z,66.38
2023-02-21T04:09:28.920Z,67.15
2023-02-21T04:10:28.837Z,63.30
2023-02-21T04:11:28.862Z,65.63
2023-02-21T04:12:28.891Z,67.26
2023-02-21T04:13:28.849Z,61.00
2023-02-21T04:14:28.822Z,65.81
2023-02-21T04:15:28.827Z,59.67
2023-02-21T04:16:28.925Z,66.95
2023-02-21T04:17:28.859Z,58.60
2023-02-21T04:18:28.796Z,69.99
2023-02-21T04:19:29.725Z,67.43
2023-02-21T04:20:28.822Z,60.52
2023-02-21T04:21:28.807Z,64.05
2023-02-21T04:22:28.792Z,61.06
2023-02-21T04:23:28.776Z,62.89
2023-02-21T04:24:28.787Z,67.67
2023-02-21T04:25:28.759Z,61.65
2023-02-21T04:26:28.748Z,60.52
2023-02-21T04:27:28.739Z,63.74
2023-02-21T04:28:29.768Z,66.78
2023-02-21T04:29:28.732Z,67.66
2023-02-21T04:30:28.857Z,69.60
2023-02-21T04:31:28.792Z,64.93
2023-02-21T04:32:28.744Z,65.55
2023-02-21T04:33:28.720Z,64.05
2023-02-21T04:34:28.751Z,65.94
2023-02-21T04:35:28.715Z,68.11
2023-02-21T04:36:28.681Z,63.81
2023-02-21T04:37:28.725Z,68.50
2023-02-21T04:38:28.684Z,66.75
2023-02-21T04:39:28.681Z,72.77
2023-02-21T04:40:28.716Z,68.94
2023-02-21T04:41:28.716Z,64.57
2023-02-21T04:42:28.671Z,63.70
2023-02-21T04:43:28.690Z,70.10
2023-02-21T04:44:28.710Z,65.76
2023-02-21T04:45:28.699Z,70.74
2023-02-21T04:46:28.642Z,71.09
2023-02-21T04:47:28.634Z,67.02
2023-02-21T04:48:28.619Z,64.64
2023-02-21T04:49:28.663Z,64.56
2023-02-21T04:50:28.649Z,69.32
2023-02-21T04:51:28.627Z,65.59
2023-02-21T04:52:28.612Z,68.27
2023-02-21T04:53:28.599Z,73.37
2023-02-21T04:54:28.609Z,65.34
2023-02-21T04:55:28.611Z,67.89
2023-02-21T04:56:28.642Z,69.48
2023-02-21T04:57:28.598Z,66.73
2023-02-21T04:58:31.182Z,72.34
2023-02-21T04:59:30.690Z,62.36
2023-02-21T05:00:28.581Z,72.29
2023-02-21T05:01:28.626Z,70.08
2023-02-21T05:02:28.570Z,59.86
2023-02-21T05:03:28.590Z,70.74
2023-02-21T05:04:28.637Z,61.42
2023-02-21T05:05:28.602Z,65.63
2023-02-21T05:06:28.532Z,65.90
2023-02-21T05:07:28.536Z,71.60
2023-02-21T05:08:28.858Z,72.90
2023-02-21T05:09:29.523Z,68.03
2023-02-21T05:10:43.568Z,70.59
2023-02-21T05:11:30.522Z,67.91
2023-02-21T05:12:28.544Z,70.89
2023-02-21T05:13:28.539Z,63.89
2023-02-21T05:14:29.236Z,71.32
2023-02-21T05:15:28.530Z,71.76
2023-02-21T05:16:28.546Z,67.68
2023-02-21T05:17:28.472Z,67.51
2023-02-21T05:18:28.511Z,67.38
2023-02-21T05:19:28.481Z,69.94
2023-02-21T05:20:28.458Z,70.59
2023-02-21T05:21:28.445Z,70.55
2023-02-21T05:22:28.460Z,71.56
2023-02-21T05:23:28.465Z,71.17
2023-02-21T05:24:28.440Z,69.08
2023-02-21T05:25:28.446Z,66.61
2023-02-21T05:26:28.412Z,68.51
2023-02-21T05:27:28.408Z,72.47
2023-02-21T05:28:28.448Z,68.96
2023-02-21T05:29:28.408Z,70.42
2023-02-21T05:30:28.485Z,69.55
2023-02-21T05:31:29.507Z,72.48
2023-02-21T05:32:29.307Z,69.52
2023-02-21T05:33:28.393Z,68.28
2023-02-21T05:34:28.382Z,72.72
2023-02-21T05:35:28.367Z,67.37
2023-02-21T05:36:28.353Z,70.40
2023-02-21T05:37:31.282Z,70.74
2023-02-21T05:38:29.409Z,67.39
2023-02-21T05:39:28.394Z,72.86
2023-02-21T05:40:28.362Z,68.59
2023-02-21T05:41:28.366Z,71.51
2023-02-21T05:42:28.364Z,73.00
2023-02-21T05:43:29.209Z,69.88
2023-02-21T05:44:29.335Z,72.85
2023-02-21T05:45:28.320Z,72.11
2023-02-21T05:46:28.316Z,69.55
2023-02-21T05:47:28.299Z,74.05
2023-02-21T05:48:29.320Z,71.04
2023-02-21T05:49:28.362Z,72.72
2023-02-21T05:50:28.312Z,71.06
2023-02-21T05:51:28.262Z,71.98
2023-02-21T05:52:28.297Z,70.92
2023-02-21T05:53:28.320Z,72.40
2023-02-21T05:54:28.272Z,68.73
2023-02-21T05:55:28.292Z,75.12
2023-02-21T05:56:28.281Z,70.90
2023-02-21T05:57:28.301Z,73.18
2023-02-21T05:58:28.260Z,68.95
2023-02-21T05:59:28.248Z,69.86
2023-02-21T06:00:28.245Z,69.55
2023-02-21T06:01:28.250Z,66.91
2023-02-21T06:02:29.288Z,70.53
2023-02-21T06:03:28.801Z,70.43
2023-02-21T06:04:28.202Z,66.71
2023-02-21T06:05:28.243Z,68.34
2023-02-21T06:06:28.196Z,74.61
2023-02-21T06:07:28.165Z,69.94
2023-02-21T06:08:28.164Z,65.34
2023-02-21T06:09:28.184Z,71.70
2023-02-21T06:10:28.171Z,73.49
2023-02-21T06:11:29.200Z,71.69
2023-02-21T06:12:28.175Z,71.86
2023-02-21T06:13:28.132Z,70.22
2023-02-21T06:14:28.173Z,68.89
2023-02-21T06:15:28.133Z,74.79
2023-02-21T06:16:28.184Z,69.07
2023-02-21T06:17:28.122Z,73.25
2023-02-21T06:18:28.130Z,72.09
2023-02-21T06:19:28.151Z,73.28
2023-02-21T06:20:28.121Z,71.74
2023-02-21T06:21:28.168Z,73.57
2023-02-21T06:22:28.754Z,70.05
2023-02-21T06:23:28.124Z,72.03
2023-02-21T06:24:28.216Z,72.72
2023-02-21T06:25:28.104Z,74.01
2023-02-21T06:26:28.121Z,67.41
2023-02-21T06:27:28.175Z,73.98
2023-02-21T06:28:28.091Z,72.29
2023-02-21T06:29:28.746Z,73.94
2023-02-21T06:30:28.182Z,72.33
2023-02-21T06:31:28.128Z,70.93
2023-02-21T06:32:28.028Z,70.38
2023-02-21T06:33:28.058Z,74.57
2023-02-21T06:34:28.020Z,70.84
2023-02-21T06:35:28.051Z,72.10
2023-02-21T06:36:28.027Z,70.61
2023-02-21T06:37:28.011Z,73.06
2023-02-21T06:38:28.009Z,72.35
2023-02-21T06:39:27.987Z,72.05
2023-02-21T06:40:28.000Z,73.29
2023-02-21T06:41:27.979Z,72.93
2023-02-21T06:42:27.984Z,73.58
2023-02-21T06:43:27.985Z,73.48
2023-02-21T06:44:28.001Z,70.59
2023-02-21T06:45:28.001Z,74.06
2023-02-21T06:46:28.035Z,69.74
2023-02-21T06:47:27.955Z,72.89
2023-02-21T06:48:27.933Z,72.23
2023-02-21T06:49:27.941Z,72.52
2023-02-21T06:50:27.922Z,72.62
2023-02-21T06:51:27.940Z,72.63
2023-02-21T06:52:27.939Z,74.97
2023-02-21T06:53:27.944Z,72.89
2023-02-21T06:54:27.950Z,73.64
2023-02-21T06:55:27.974Z,70.36
2023-02-21T06:56:27.898Z,70.65
2023-02-21T06:57:27.924Z,72.63
2023-02-21T06:58:27.896Z,71.70
2023-02-21T06:59:27.871Z,74.73
2023-02-21T07:00:27.879Z,70.15
2023-02-21T07:01:27.944Z,71.91
2023-02-21T07:02:27.874Z,69.21
2023-02-21T07:03:27.839Z,70.44
2023-02-21T07:04:27.958Z,70.33
2023-02-21T07:05:27.827Z,69.80
2023-02-21T07:06:29.702Z,71.36
2023-02-21T07:07:28.881Z,70.67
2023-02-21T07:08:27.836Z,69.37
2023-02-21T07:09:27.837Z,73.54
2023-02-21T07:10:27.792Z,69.20
2023-02-21T07:11:27.800Z,70.22
2023-02-21T07:12:27.796Z,69.96
2023-02-21T07:13:27.828Z,69.10
2023-02-21T07:14:27.805Z,70.49
2023-02-21T07:15:27.812Z,70.70
2023-02-21T07:16:27.793Z,68.18
2023-02-21T07:17:27.772Z,73.83
2023-02-21T07:18:27.783Z,71.18
2023-02-21T07:19:27.808Z,71.74
2023-02-21T07:20:27.749Z,70.68
2023-02-21T07:21:27.777Z,70.78
2023-02-21T07:22:27.748Z,68.58
2023-02-21T07:23:27.735Z,67.74
2023-02-21T07:24:27.724Z,74.64
2023-02-21T07:25:27.750Z,69.57
2023-02-21T07:26:27.746Z,69.98
2023-02-21T07:27:27.722Z,70.12
2023-02-21T07:28:27.735Z,64.83
2023-02-21T07:29:27.741Z,68.35
2023-02-21T07:30:27.782Z,69.42
2023-02-21T07:31:27.840Z,68.51
2023-02-21T07:32:27.732Z,72.06
2023-02-21T07:33:27.703Z,72.64
2023-02-21T07:34:27.673Z,68.79
2023-02-21T07:35:27.707Z,67.75
2023-02-21T07:36:27.653Z,69.03
2023-02-21T07:37:27.651Z,70.25
2023-02-21T07:38:27.655Z,71.83
2023-02-21T07:39:27.663Z,71.50
2023-02-21T07:40:27.756Z,70.13
2023-02-21T07:41:27.644Z,69.56
2023-02-21T07:42:27.640Z,67.81
2023-02-21T07:43:27.639Z,74.31
2023-02-21T07:44:27.628Z,73.64
2023-02-21T07:45:27.628Z,67.74
2023-02-21T07:46:28.267Z,70.94
2023-02-21T07:47:27.633Z,67.19
2023-02-21T07:48:27.622Z,68.81
2023-02-21T07:49:27.588Z,68.19
2023-02-21T07:50:27.609Z,72.78
2023-02-21T07:51:27.577Z,70.15
2023-02-21T07:52:27.560Z,71.25
2023-02-21T07:53:27.559Z,72.67
2023-02-21T07:54:27.543Z,71.29
2023-02-21T07:55:27.609Z,69.00
2023-02-21T07:56:27.574Z,71.58
2023-02-21T07:57:27.525Z,69.96
2023-02-21T07:58:27.535Z,72.92
2023-02-21T07:59:27.525Z,71.43
2023-02-21T08:00:27.585Z,72.29
2023-02-21T08:01:27.573Z,69.21
2023-02-21T08:02:27.506Z,71.20
2023-02-21T08:03:27.503Z,69.13
2023-02-21T08:04:27.560Z,66.47
2023-02-21T08:05:27.511Z,71.79
2023-02-21T08:06:27.471Z,70.50
2023-02-21T08:07:27.476Z,71.40
2023-02-21T08:08:27.472Z,67.74
2023-02-21T08:09:27.462Z,70.27
2023-02-21T08:10:27.444Z,71.83
2023-02-21T08:11:27.446Z,66.51
2023-02-21T08:12:27.461Z,69.00
2023-02-21T08:13:27.418Z,69.22
2023-02-21T08:14:27.871Z,71.87
2023-02-21T08:15:27.472Z,67.17
2023-02-21T08:16:27.433Z,74.29
2023-02-21T08:17:27.392Z,72.32
2023-02-21T08:18:28.429Z,68.71
2023-02-21T08:19:27.393Z,71.21
2023-02-21T08:20:27.377Z,70.78
2023-02-21T08:21:27.367Z,64.92
2023-02-21T08:22:27.355Z,68.10
2023-02-21T08:23:27.362Z,67.14
2023-02-21T08:24:27.358Z,68.51
2023-02-21T08:25:27.363Z,72.66
2023-02-21T08:26:27.336Z,71.15
2023-02-21T08:27:27.315Z,71.40
2023-02-21T08:28:27.327Z,71.30
2023-02-21T08:29:27.322Z,66.88
2023-02-21T08:30:27.497Z,66.21
2023-02-21T08:31:27.327Z,73.86
2023-02-21T08:32:27.329Z,69.34
2023-02-21T08:33:27.306Z,69.46
2023-02-21T08:34:27.298Z,65.27
2023-02-21T08:35:27.284Z,61.26
2023-02-21T08:36:27.267Z,68.32
2023-02-21T08:37:27.269Z,70.63
2023-02-21T08:38:27.252Z,70.53
2023-02-21T08:39:27.322Z,67.41
2023-02-21T08:40:27.236Z,68.07
2023-02-21T08:41:27.248Z,60.06
2023-02-21T08:42:27.241Z,66.33
2023-02-21T08:43:27.242Z,69.44
2023-02-21T08:44:27.246Z,68.14
2023-02-21T08:45:27.250Z,68.07
2023-02-21T08:46:27.257Z,72.72
2023-02-21T08:47:27.188Z,71.72
2023-02-21T08:48:27.201Z,64.47
2023-02-21T08:49:27.218Z,69.27
2023-02-21T08:50:27.183Z,71.14
2023-02-21T08:51:27.171Z,67.90
2023-02-21T08:52:27.178Z,69.70
2023-02-21T08:53:27.163Z,73.81
2023-02-21T08:54:27.169Z,68.86
2023-02-21T08:55:27.133Z,73.76
2023-02-21T08:56:27.126Z,73.77
2023-02-21T08:57:27.155Z,65.66
2023-02-21T08:58:27.245Z,68.18
2023-02-21T08:59:27.143Z,72.06
2023-02-21T09:00:27.132Z,65.76
2023-02-21T09:01:27.232Z,70.04
2023-02-21T09:02:27.148Z,70.96
2023-02-21T09:03:27.095Z,69.82
2023-02-21T09:04:27.097Z,69.52
2023-02-21T09:05:27.109Z,63.81
2023-02-21T09:06:27.075Z,71.61
2023-02-21T09:07:27.075Z,71.14
2023-02-21T09:08:27.063Z,68.85
2023-02-21T09:09:27.051Z,66.23
2023-02-21T09:10:27.102Z,69.42
2023-02-21T09:11:27.082Z,73.49
2023-02-21T09:12:27.045Z,75.34
2023-02-21T09:13:27.041Z,72.34
2023-02-21T09:14:27.030Z,71.29
2023-02-21T09:15:27.032Z,67.29
2023-02-21T09:16:27.047Z,69.20
2023-02-21T09:17:26.993Z,70.11
2023-02-21T09:18:27.065Z,73.67
2023-02-21T09:19:27.001Z,71.48
2023-02-21T09:20:27.072Z,72.02
2023-02-21T09:21:27.736Z,70.51
2023-02-21T09:22:26.974Z,71.86
2023-02-21T09:23:27.025Z,71.92
2023-02-21T09:24:26.966Z,73.19
2023-02-21T09:25:26.955Z,72.02
2023-02-21T09:26:26.978Z,74.25
2023-02-21T09:27:26.950Z,66.09
2023-02-21T09:28:26.979Z,67.31
2023-02-21T09:29:31.591Z,70.96
2023-02-21T09:30:27.952Z,66.04
2023-02-21T09:31:26.994Z,72.45
2023-02-21T09:32:26.927Z,67.73
2023-02-21T09:33:26.930Z,73.53
2023-02-21T09:34:26.925Z,69.80
2023-02-21T09:35:27.907Z,71.94
2023-02-21T09:36:26.884Z,68.83
2023-02-21T09:37:26.883Z,73.22
2023-02-21T09:38:26.885Z,72.54
2023-02-21T09:39:26.861Z,71.02
2023-02-21T09:40:26.871Z,67.40
2023-02-21T09:41:27.726Z,72.13
2023-02-21T09:42:26.855Z,62.43
2023-02-21T09:43:26.862Z,69.22
2023-02-21T09:44:26.859Z,71.25
2023-02-21T09:45:26.893Z,69.31
2023-02-21T09:46:26.845Z,69.55
2023-02-21T09:47:26.813Z,71.94
2023-02-21T09:48:26.842Z,68.08
2023-02-21T09:49:26.801Z,67.88
2023-02-21T09:50:26.802Z,69.35
2023-02-21T09:51:26.802Z,71.93
2023-02-21T09:52:27.724Z,70.63
2023-02-21T09:53:26.772Z,68.45
2023-02-21T09:54:26.771Z,68.84
2023-02-21T09:55:29.054Z,73.25
2023-02-21T09:56:26.857Z,72.22
2023-02-21T09:57:26.748Z,68.86
2023-02-21T09:58:26.732Z,68.71
2023-02-21T09:59:26.732Z,70.55
2023-02-21T10:00:26.715Z,70.21
2023-02-21T10:01:26.782Z,72.65
2023-02-21T10:02:26.721Z,68.89
2023-02-21T10:03:26.712Z,69.55
2023-02-21T10:04:26.712Z,71.64
2023-02-21T10:05:26.686Z,71.17
2023-02-21T10:06:26.696Z,71.30
2023-02-21T10:07:26.665Z,70.52
2023-02-21T10:08:26.678Z,69.22
2023-02-21T10:09:26.646Z,71.88
2023-02-21T10:10:26.678Z,71.37
2023-02-21T10:11:26.673Z,70.73
2023-02-21T10:12:26.631Z,69.37
2023-02-21T10:13:26.687Z,68.50
2023-02-21T10:14:26.626Z,71.45
2023-02-21T10:15:26.623Z,71.16
2023-02-21T10:16:26.663Z,73.55
2023-02-21T10:17:26.610Z,68.05
2023-02-21T10:18:26.606Z,72.54
2023-02-21T10:19:27.589Z,67.02
2023-02-21T10:20:26.599Z,69.71
2023-02-21T10:21:26.590Z,68.70
2023-02-21T10:22:26.631Z,74.07
2023-02-21T10:23:26.555Z,68.55
2023-02-21T10:24:26.555Z,69.12
2023-02-21T10:25:27.231Z,71.58
2023-02-21T10:26:26.549Z,67.87
2023-02-21T10:27:26.554Z,73.08
2023-02-21T10:28:26.554Z,72.62
2023-02-21T10:29:26.529Z,73.03
2023-02-21T10:30:26.676Z,74.60
2023-02-21T10:31:26.548Z,71.67
2023-02-21T10:32:26.523Z,68.69
2023-02-21T10:33:26.506Z,67.72
2023-02-21T10:34:26.489Z,71.57
2023-02-21T10:35:26.525Z,68.81
2023-02-21T10:36:26.501Z,69.42
2023-02-21T10:37:26.560Z,65.78
2023-02-21T10:38:26.522Z,72.07
2023-02-21T10:39:26.458Z,73.55
2023-02-21T10:40:26.468Z,70.20
2023-02-21T10:41:26.495Z,68.17
2023-02-21T10:42:26.457Z,73.15
2023-02-21T10:43:26.458Z,70.60
2023-02-21T10:44:26.480Z,69.96
2023-02-21T10:45:26.437Z,71.01
2023-02-21T10:46:26.446Z,71.07
2023-02-21T10:47:26.400Z,72.97
2023-02-21T10:48:26.416Z,71.57
2023-02-21T10:49:26.411Z,69.11
2023-02-21T10:50:26.388Z,70.74
2023-02-21T10:51:26.401Z,69.05
2023-02-21T10:52:26.381Z,73.32
2023-02-21T10:53:26.421Z,69.58
2023-02-21T10:54:26.397Z,68.99
2023-02-21T10:55:33.090Z,73.79
2023-02-21T10:56:28.373Z,72.36
2023-02-21T10:57:26.335Z,67.56
2023-02-21T10:58:27.246Z,68.69
2023-02-21T10:59:26.328Z,71.36
2023-02-21T11:00:26.350Z,74.19
2023-02-21T11:01:26.373Z,71.74
2023-02-21T11:02:26.333Z,70.88
2023-02-21T11:03:26.328Z,72.27
2023-02-21T11:04:26.288Z,72.46
2023-02-21T11:05:26.320Z,70.91
2023-02-21T11:06:27.977Z,72.81
2023-02-21T11:07:27.272Z,66.35
2023-02-21T11:08:26.276Z,71.62
2023-02-21T11:09:26.341Z,71.67
2023-02-21T11:10:26.297Z,72.37
2023-02-21T11:11:26.242Z,65.74
2023-02-21T11:12:26.268Z,71.10
2023-02-21T11:13:26.232Z,71.27
2023-02-21T11:14:26.291Z,70.55
2023-02-21T11:15:26.228Z,71.81
2023-02-21T11:16:26.259Z,67.55
2023-02-21T11:17:26.228Z,64.01
2023-02-21T11:18:27.215Z,73.26
2023-02-21T11:19:26.252Z,70.71
2023-02-21T11:20:26.232Z,72.70
2023-02-21T11:21:26.226Z,69.75
2023-02-21T11:22:26.225Z,67.69
2023-02-21T11:23:26.208Z,66.35
2023-02-21T11:24:26.187Z,69.59
2023-02-21T11:25:26.386Z,72.46
2023-02-21T11:26:26.195Z,70.41
2023-02-21T11:27:26.178Z,65.78
2023-02-21T11:28:26.221Z,73.83
2023-02-21T11:29:26.165Z,71.97
2023-02-21T11:30:26.182Z,70.89
2023-02-21T11:31:26.199Z,71.92
2023-02-21T11:32:26.183Z,71.04
2023-02-21T11:33:26.136Z,65.53
2023-02-21T11:34:26.148Z,71.82
2023-02-21T11:35:26.121Z,70.22
2023-02-21T11:36:26.778Z,66.37
2023-02-21T11:37:26.103Z,63.12
2023-02-21T11:38:28.369Z,72.75
2023-02-21T11:39:26.134Z,71.32
2023-02-21T11:40:26.088Z,73.08
2023-02-21T11:41:26.079Z,69.68
2023-02-21T11:42:26.085Z,72.66
2023-02-21T11:43:26.778Z,72.08
2023-02-21T11:44:26.170Z,70.49
2023-02-21T11:45:26.644Z,72.58
2023-02-21T11:46:26.073Z,73.46
2023-02-21T11:47:26.058Z,70.15
2023-02-21T11:48:26.033Z,70.32
2023-02-21T11:49:26.152Z,72.30
2023-02-21T11:50:26.043Z,67.18
2023-02-21T11:51:26.010Z,70.80
2023-02-21T11:52:27.015Z,71.98
2023-02-21T11:53:26.087Z,69.54
2023-02-21T11:54:26.023Z,67.88
2023-02-21T11:55:26.604Z,69.42
2023-02-21T11:56:26.992Z,73.13
2023-02-21T11:57:25.998Z,72.23
2023-02-21T11:58:26.100Z,69.38
2023-02-21T11:59:25.970Z,69.42
2023-02-21T12:00:27.005Z,70.74
2023-02-21T12:01:25.985Z,73.69
2023-02-21T12:02:26.785Z,72.21
2023-02-21T12:03:25.946Z,69.52
2023-02-21T12:04:25.938Z,70.36
2023-02-21T12:05:27.060Z,70.94
2023-02-21T12:06:25.921Z,68.69
2023-02-21T12:07:25.903Z,70.88
2023-02-21T12:08:26.913Z,71.58
2023-02-21T12:09:25.939Z,71.04
2023-02-21T12:10:25.907Z,73.86
2023-02-21T12:11:25.908Z,72.41
2023-02-21T12:12:25.890Z,72.09
2023-02-21T12:13:25.877Z,70.79
2023-02-21T12:14:25.929Z,74.93
2023-02-21T12:15:25.929Z,72.44
2023-02-21T12:16:25.870Z,72.87
2023-02-21T12:17:26.853Z,70.12
2023-02-21T12:18:25.873Z,70.83
2023-02-21T12:19:25.860Z,71.93
2023-02-21T12:20:25.882Z,72.22
2023-02-21T12:21:25.844Z,70.63
2023-02-21T12:22:27.611Z,68.70
2023-02-21T12:23:25.850Z,72.04
2023-02-21T12:24:25.810Z,65.77
2023-02-21T12:25:25.843Z,65.37
2023-02-21T12:26:25.806Z,70.85
2023-02-21T12:27:25.797Z,68.42
2023-02-21T12:28:25.806Z,72.59
2023-02-21T12:29:25.845Z,71.51
2023-02-21T12:30:25.842Z,71.76
2023-02-21T12:31:25.891Z,69.73
2023-02-21T12:32:25.838Z,72.43
2023-02-21T12:33:26.205Z,70.76
2023-02-21T12:34:26.799Z,69.44
2023-02-21T12:35:25.778Z,72.30
2023-02-21T12:36:25.780Z,67.73
2023-02-21T12:37:25.765Z,71.06
2023-02-21T12:38:25.734Z,71.82
2023-02-21T12:39:25.764Z,70.51
2023-02-21T12:40:25.785Z,65.65
2023-02-21T12:41:25.733Z,72.75
2023-02-21T12:42:25.738Z,72.37
2023-02-21T12:43:25.726Z,71.81
2023-02-21T12:44:25.704Z,72.31
2023-02-21T12:45:25.721Z,72.18
2023-02-21T12:46:25.761Z,63.59
2023-02-21T12:47:25.710Z,75.56
2023-02-21T12:48:25.681Z,73.81
2023-02-21T12:49:25.671Z,72.45
2023-02-21T12:50:25.757Z,71.06
2023-02-21T12:51:25.684Z,70.83
2023-02-21T12:52:25.690Z,70.71